createdAt,value
2018-12-10T00:01:28.793Z,76.32
2018-12-10T00:03:56.529Z,76.23
2018-12-10T00:06:24.303Z,75.77
2018-12-10T00:08:51.967Z,75.18
2018-12-10T00:11:19.653Z,74.94
2018-12-10T00:13:47.384Z,74.81
2018-12-10T00:16:14.753Z,74.17
2018-12-10T00:18:42.363Z,73.89
2018-12-10T00:21:10.059Z,74.51
2018-12-10T00:23:37.477Z,75.17
2018-12-10T00:26:05.189Z,74.70
2018-12-10T00:28:32.578Z,74.77
2018-12-10T00:31:00.261Z,75.54
2018-12-10T00:33:27.847Z,76.24
2018-12-10T00:35:55.227Z,77.21
2018-12-10T00:38:22.847Z,78.00
2018-12-10T00:40:50.563Z,77.90
2018-12-10T00:43:18.255Z,78.25
2018-12-10T00:45:45.843Z,78.69
2018-12-10T00:48:13.319Z,79.38
2018-12-10T00:50:40.819Z,79.87
2018-12-10T00:53:08.387Z,80.04
2018-12-10T00:55:35.965Z,80.17
2018-12-10T00:58:03.648Z,80.68
2018-12-10T01:00:31.344Z,80.65
2018-12-10T01:02:58.917Z,80.28
2018-12-10T01:05:26.380Z,79.91
2018-12-10T01:07:54.044Z,80.01
2018-12-10T01:10:21.436Z,79.97
2018-12-10T01:12:49.123Z,79.93
2018-12-10T01:15:16.868Z,80.05
2018-12-10T01:17:44.427Z,80.39
2018-12-10T01:20:12.248Z,80.31
2018-12-10T01:22:40.052Z,80.05
2018-12-10T01:25:07.649Z,79.36
2018-12-10T01:27:35.336Z,79.06
2018-12-10T01:30:03.604Z,78.84
2018-12-10T01:32:31.354Z,78.22
2018-12-10T01:34:59.096Z,77.99
2018-12-10T01:37:27.440Z,75.55
2018-12-10T01:39:55.014Z,75.57
2018-12-10T01:42:22.698Z,75.74
2018-12-10T01:44:50.302Z,75.73
2018-12-10T01:47:17.957Z,75.86
2018-12-10T01:49:45.528Z,76.08
2018-12-10T01:52:12.882Z,76.23
2018-12-10T01:54:40.503Z,75.96
2018-12-10T01:57:08.036Z,76.72
2018-12-10T01:59:35.673Z,77.63
2018-12-10T02:02:03.491Z,76.84
2018-12-10T02:04:31.198Z,76.12
2018-12-10T02:06:58.933Z,76.46
2018-12-10T02:09:26.609Z,76.59
2018-12-10T02:11:54.051Z,77.14
2018-12-10T02:14:21.871Z,78.15
2018-12-10T02:16:49.249Z,78.65
2018-12-10T02:19:17.029Z,78.74
2018-12-10T02:21:44.641Z,78.40
2018-12-10T02:24:12.227Z,77.66
2018-12-10T02:26:40.103Z,77.16
2018-12-10T02:29:14.439Z,76.79
2018-12-10T02:31:43.011Z,76.97
2018-12-10T02:34:10.632Z,77.10
2018-12-10T02:36:38.505Z,76.22
2018-12-10T02:39:06.244Z,76.66
2018-12-10T02:41:33.945Z,76.14
2018-12-10T02:44:01.967Z,75.94
2018-12-10T02:46:29.692Z,76.09
2018-12-10T02:48:57.396Z,76.03
2018-12-10T02:51:25.257Z,76.93
2018-12-10T02:53:52.949Z,77.77
2018-12-10T02:56:20.578Z,77.89
2018-12-10T02:58:48.451Z,78.44
2018-12-10T03:01:16.016Z,79.08
2018-12-10T03:03:43.740Z,79.10
2018-12-10T03:06:11.409Z,78.21
2018-12-10T03:08:39.178Z,77.98
2018-12-10T03:11:06.785Z,78.59
2018-12-10T03:13:36.447Z,78.96
2018-12-10T03:16:04.295Z,79.04
2018-12-10T03:18:31.966Z,79.32
2018-12-10T03:20:59.355Z,80.35
2018-12-10T03:23:27.495Z,80.58
2018-12-10T03:25:54.819Z,80.25
2018-12-10T03:28:22.513Z,80.19
2018-12-10T03:30:50.054Z,80.60
2018-12-10T03:33:17.716Z,80.31
2018-12-10T03:35:45.133Z,80.86
2018-12-10T03:38:13.017Z,80.66
2018-12-10T03:40:40.728Z,80.58
2018-12-10T03:43:08.402Z,80.86
2018-12-10T03:45:35.733Z,81.22
2018-12-10T03:48:03.272Z,81.46
2018-12-10T03:50:30.624Z,81.77
2018-12-10T03:52:58.344Z,81.36
2018-12-10T03:55:25.652Z,81.36
2018-12-10T03:57:53.151Z,81.67
2018-12-10T04:00:20.804Z,81.99
2018-12-10T04:02:48.209Z,81.99
2018-12-10T04:05:16.031Z,82.45
2018-12-10T04:07:43.376Z,82.18
2018-12-10T04:10:11.041Z,82.67
2018-12-10T04:12:38.755Z,82.46
2018-12-10T04:15:06.605Z,82.50
2018-12-10T04:17:34.269Z,82.37
2018-12-10T04:20:02.299Z,82.19
2018-12-10T04:22:29.964Z,82.68
2018-12-10T04:24:57.532Z,83.06
2018-12-10T04:27:25.132Z,83.34
2018-12-10T04:29:52.752Z,82.61
2018-12-10T04:32:20.417Z,82.35
2018-12-10T04:34:48.132Z,82.62
2018-12-10T04:37:15.652Z,82.54
2018-12-10T04:39:43.524Z,81.90
2018-12-10T04:42:11.143Z,81.82
2018-12-10T04:44:38.460Z,81.14
2018-12-10T04:47:06.277Z,80.84
2018-12-10T04:49:33.858Z,81.34
2018-12-10T04:52:01.590Z,81.29
2018-12-10T04:54:29.356Z,80.93
2018-12-10T04:56:56.996Z,81.08
2018-12-10T04:59:24.644Z,80.60
2018-12-10T05:01:52.360Z,80.97
2018-12-10T05:04:20.185Z,80.99
2018-12-10T05:06:47.880Z,81.07
2018-12-10T05:09:15.672Z,81.34
2018-12-10T05:11:43.372Z,81.30
2018-12-10T05:14:11.020Z,81.35
2018-12-10T05:16:39.050Z,81.50
2018-12-10T05:19:06.536Z,81.90
2018-12-10T05:21:34.348Z,82.26
2018-12-10T05:24:01.974Z,82.21
2018-12-10T05:26:29.615Z,82.21
2018-12-10T05:28:57.421Z,82.47
2018-12-10T05:31:24.773Z,82.53
2018-12-10T05:33:52.625Z,82.32
2018-12-10T05:36:20.071Z,81.40
2018-12-10T05:38:47.512Z,80.81
2018-12-10T05:41:15.397Z,79.86
2018-12-10T05:43:42.952Z,79.66
2018-12-10T05:46:10.487Z,79.23
2018-12-10T05:48:38.089Z,79.30
2018-12-10T05:51:05.493Z,79.39
2018-12-10T05:53:33.059Z,79.04
2018-12-10T05:56:00.853Z,79.34
2018-12-10T05:58:28.655Z,79.58
2018-12-10T06:00:56.265Z,79.59
2018-12-10T06:03:23.985Z,79.52
2018-12-10T06:05:51.417Z,79.05
2018-12-10T06:08:19.201Z,78.90
2018-12-10T06:10:46.816Z,79.85
2018-12-10T06:13:14.243Z,79.61
2018-12-10T06:15:41.756Z,79.47
2018-12-10T06:18:09.199Z,80.02
2018-12-10T06:20:36.736Z,79.55
2018-12-10T06:23:04.498Z,79.58
2018-12-10T06:25:32.138Z,78.69
2018-12-10T06:28:00.001Z,77.85
2018-12-10T06:30:27.809Z,77.81
2018-12-10T06:32:55.670Z,77.79
2018-12-10T06:35:23.628Z,77.91
2018-12-10T06:37:51.372Z,77.14
2018-12-10T06:40:18.982Z,76.56
2018-12-10T06:42:46.885Z,76.91
2018-12-10T06:45:14.502Z,77.25
2018-12-10T06:47:42.166Z,77.18
2018-12-10T06:50:09.924Z,77.52
2018-12-10T06:52:37.641Z,77.53
2018-12-10T06:55:06.142Z,77.20
2018-12-10T06:57:33.694Z,77.10
2018-12-10T07:00:01.255Z,76.91
2018-12-10T07:02:29.157Z,76.88
2018-12-10T07:04:56.845Z,76.95
2018-12-10T07:07:24.470Z,77.38
2018-12-10T07:09:56.283Z,77.38
2018-12-10T07:12:23.922Z,77.24
2018-12-10T07:14:51.423Z,77.07
2018-12-10T07:17:19.319Z,77.17
2018-12-10T07:19:47.063Z,77.70
2018-12-10T07:22:14.764Z,75.64
2018-12-10T07:24:42.485Z,76.48
2018-12-10T07:27:10.020Z,77.32
2018-12-10T07:29:37.675Z,78.34
2018-12-10T07:32:05.273Z,78.49
2018-12-10T07:34:32.959Z,78.79
2018-12-10T07:37:00.751Z,78.97
2018-12-10T07:39:28.438Z,79.16
2018-12-10T07:41:55.801Z,78.97
2018-12-10T07:44:23.375Z,78.79
2018-12-10T07:46:50.811Z,78.96
2018-12-10T07:49:18.414Z,79.39
2018-12-10T07:51:46.103Z,78.01
2018-12-10T07:54:13.999Z,76.69
2018-12-10T07:56:41.628Z,77.22
2018-12-10T07:59:09.145Z,77.01
2018-12-10T08:01:39.769Z,76.66
2018-12-10T08:04:07.437Z,76.42
2018-12-10T08:06:35.100Z,76.77
2018-12-10T08:09:04.740Z,77.17
2018-12-10T08:11:32.474Z,76.68
2018-12-10T08:14:00.064Z,76.46
2018-12-10T08:16:27.812Z,76.25
2018-12-10T08:18:55.300Z,75.76
2018-12-10T08:21:23.032Z,75.85
2018-12-10T08:23:50.386Z,76.16
2018-12-10T08:26:17.874Z,75.49
2018-12-10T08:28:45.280Z,74.56
2018-12-10T08:31:12.896Z,74.39
2018-12-10T08:33:41.352Z,74.01
2018-12-10T08:36:09.062Z,74.27
2018-12-10T08:38:36.816Z,74.35
2018-12-10T08:41:04.730Z,73.55
2018-12-10T08:43:32.404Z,73.24
2018-12-10T08:45:59.787Z,72.47
2018-12-10T08:48:27.606Z,70.29
2018-12-10T08:50:54.932Z,70.44
2018-12-10T08:53:22.516Z,70.95
2018-12-10T08:55:50.087Z,70.66
2018-12-10T08:58:17.703Z,70.73
2018-12-10T09:00:45.499Z,71.83
2018-12-10T09:03:13.084Z,71.88
2018-12-10T09:05:40.846Z,71.75
2018-12-10T09:08:08.556Z,72.39
2018-12-10T09:10:35.969Z,72.70
2018-12-10T09:13:03.799Z,73.28
2018-12-10T09:15:31.300Z,73.39
2018-12-10T09:17:59.062Z,72.66
2018-12-10T09:20:26.527Z,72.69
2018-12-10T09:22:54.216Z,71.72
2018-12-10T09:25:24.667Z,70.51
2018-12-10T09:27:51.504Z,70.13
2018-12-10T09:30:19.068Z,70.16
2018-12-10T09:32:46.758Z,69.84
2018-12-10T09:35:14.328Z,68.52
2018-12-10T09:37:42.012Z,68.30
2018-12-10T09:40:10.298Z,66.88
2018-12-10T09:42:37.889Z,66.61
2018-12-10T09:45:06.633Z,66.44
2018-12-10T09:47:34.356Z,65.17
2018-12-10T09:50:02.032Z,64.44
2018-12-10T09:52:29.888Z,63.89
2018-12-10T09:54:57.419Z,63.39
2018-12-10T09:57:24.898Z,63.29
2018-12-10T09:59:52.486Z,63.41
2018-12-10T10:02:20.083Z,63.15
2018-12-10T10:04:47.820Z,62.65
2018-12-10T10:07:15.428Z,62.36
2018-12-10T10:09:43.086Z,61.42
2018-12-10T10:12:10.987Z,61.56
2018-12-10T10:14:38.877Z,61.05
2018-12-10T10:17:06.670Z,62.05
2018-12-10T10:19:34.338Z,62.83
2018-12-10T10:22:02.051Z,62.77
2018-12-10T10:24:29.940Z,62.42
2018-12-10T10:26:57.643Z,61.01
2018-12-10T10:29:25.330Z,60.91
2018-12-10T10:31:52.954Z,61.20
2018-12-10T10:34:20.671Z,61.70
2018-12-10T10:36:48.303Z,61.85
2018-12-10T10:39:15.702Z,61.45
2018-12-10T10:41:43.295Z,59.74
2018-12-10T10:44:11.154Z,59.42
2018-12-10T10:46:39.091Z,58.26
2018-12-10T10:49:06.676Z,59.10
2018-12-10T10:51:35.115Z,58.82
2018-12-10T10:54:03.073Z,57.94
2018-12-10T10:56:30.767Z,58.83
2018-12-10T10:58:58.539Z,57.80
2018-12-10T11:01:31.949Z,58.49
2018-12-10T11:03:59.714Z,59.34
2018-12-10T11:06:27.303Z,59.52
2018-12-10T11:08:54.948Z,60.52
2018-12-10T11:11:22.601Z,60.37
2018-12-10T11:13:50.336Z,60.24
2018-12-10T11:16:17.892Z,58.62
2018-12-10T11:18:45.672Z,58.72
2018-12-10T11:21:13.250Z,58.76
2018-12-10T11:23:40.870Z,59.12
2018-12-10T11:26:08.416Z,59.28
2018-12-10T11:28:36.116Z,59.67
2018-12-10T11:31:03.676Z,60.97
2018-12-10T11:33:31.400Z,60.84
2018-12-10T11:35:58.867Z,60.96
2018-12-10T11:38:26.471Z,60.67
2018-12-10T11:40:54.191Z,60.17
2018-12-10T11:43:22.025Z,60.48
2018-12-10T11:45:49.641Z,61.17
2018-12-10T11:48:17.511Z,61.80
2018-12-10T11:50:44.849Z,61.26
2018-12-10T11:53:12.657Z,61.10
2018-12-10T11:55:40.193Z,61.10
2018-12-10T11:58:07.773Z,60.90
2018-12-10T12:00:35.553Z,60.42
2018-12-10T12:03:03.273Z,60.21
2018-12-10T12:05:30.655Z,60.73
2018-12-10T12:07:58.135Z,61.82
2018-12-10T12:10:25.733Z,62.45
2018-12-10T12:12:53.055Z,62.88
2018-12-10T12:15:20.724Z,63.53
2018-12-10T12:17:49.045Z,64.37
2018-12-10T12:20:16.884Z,64.21
2018-12-10T12:22:44.518Z,64.25
2018-12-10T12:25:12.285Z,64.90
2018-12-10T12:27:39.929Z,64.54
2018-12-10T12:30:08.434Z,63.69
2018-12-10T12:32:36.046Z,62.08
2018-12-10T12:35:03.767Z,62.21
2018-12-10T12:37:31.559Z,62.50
2018-12-10T12:39:59.468Z,62.78
2018-12-10T12:42:27.153Z,62.60
2018-12-10T12:44:54.768Z,63.58
2018-12-10T12:47:22.482Z,64.78
2018-12-10T12:49:50.109Z,63.57
2018-12-10T12:52:17.722Z,63.87
2018-12-10T12:54:45.125Z,64.11
2018-12-10T12:57:12.797Z,63.46
2018-12-10T12:59:40.385Z,63.62
2018-12-10T13:02:08.081Z,63.08
2018-12-10T13:04:35.785Z,63.45
2018-12-10T13:07:03.486Z,63.63
2018-12-10T13:09:31.337Z,64.65
2018-12-10T13:11:58.942Z,64.67
2018-12-10T13:14:26.633Z,64.99
2018-12-10T13:16:54.242Z,64.76
2018-12-10T13:19:21.919Z,65.32
2018-12-10T13:21:49.581Z,65.84
2018-12-10T13:24:17.201Z,65.87
2018-12-10T13:26:44.875Z,65.68
2018-12-10T13:29:12.913Z,65.75
2018-12-10T13:31:40.402Z,65.66
2018-12-10T13:34:07.993Z,65.10
2018-12-10T13:36:35.561Z,65.52
2018-12-10T13:39:05.378Z,65.71
2018-12-10T13:41:32.781Z,65.17
2018-12-10T13:44:00.467Z,64.66
2018-12-10T13:46:28.106Z,65.15
2018-12-10T13:48:55.873Z,65.78
2018-12-10T13:51:23.490Z,65.80
2018-12-10T13:53:51.089Z,65.40
2018-12-10T13:56:18.915Z,65.91
2018-12-10T13:58:46.604Z,65.47
2018-12-10T14:01:14.344Z,65.98
2018-12-10T14:03:41.928Z,65.04
2018-12-10T14:06:09.608Z,65.05
2018-12-10T14:08:37.319Z,65.46
2018-12-10T14:11:04.980Z,65.52
2018-12-10T14:13:32.568Z,65.52
2018-12-10T14:16:00.315Z,66.61
2018-12-10T14:18:28.582Z,66.97
2018-12-10T14:20:56.085Z,67.59
2018-12-10T14:23:23.460Z,67.80
2018-12-10T14:25:51.206Z,68.05
2018-12-10T14:28:18.885Z,68.86
2018-12-10T14:30:46.675Z,69.18
2018-12-10T14:33:14.492Z,69.82
2018-12-10T14:35:42.005Z,69.40
2018-12-10T14:38:09.660Z,69.77
2018-12-10T14:40:38.461Z,70.14
2018-12-10T14:43:06.328Z,69.92
2018-12-10T14:45:33.786Z,70.31
2018-12-10T14:48:01.555Z,70.33
2018-12-10T14:50:30.455Z,70.46
2018-12-10T14:52:58.316Z,70.59
2018-12-10T14:55:26.068Z,71.22
2018-12-10T14:57:53.552Z,70.71
2018-12-10T15:00:20.932Z,70.80
2018-12-10T15:02:48.589Z,71.99
2018-12-10T15:05:16.053Z,72.73
2018-12-10T15:07:43.757Z,72.43
2018-12-10T15:10:11.276Z,72.62
2018-12-10T15:12:38.984Z,72.79
2018-12-10T15:15:09.749Z,73.40
2018-12-10T15:17:37.430Z,73.55
2018-12-10T15:20:11.742Z,73.71
2018-12-10T15:22:39.282Z,74.53
2018-12-10T15:25:07.892Z,74.34
2018-12-10T15:27:36.316Z,73.59
2018-12-10T15:30:06.516Z,73.61
2018-12-10T15:32:34.120Z,73.63
2018-12-10T15:35:01.796Z,73.43
2018-12-10T15:37:29.457Z,73.53
2018-12-10T15:39:57.226Z,73.68
2018-12-10T15:42:24.731Z,72.91
2018-12-10T15:44:52.331Z,71.89
2018-12-10T15:47:20.041Z,72.06
2018-12-10T15:49:47.660Z,73.23
2018-12-10T15:52:15.108Z,71.48
2018-12-10T15:54:42.646Z,71.71
2018-12-10T15:57:10.037Z,72.62
2018-12-10T15:59:37.795Z,72.66
2018-12-10T16:02:05.703Z,72.34
2018-12-10T16:04:34.134Z,71.91
2018-12-10T16:07:02.022Z,71.55
2018-12-10T16:09:29.661Z,71.12
2018-12-10T16:11:57.642Z,71.76
2018-12-10T16:14:25.353Z,72.13
2018-12-10T16:16:52.974Z,72.18
2018-12-10T16:19:20.736Z,72.82
2018-12-10T16:21:48.283Z,73.08
2018-12-10T16:24:16.104Z,73.13
2018-12-10T16:26:43.926Z,73.49
2018-12-10T16:29:11.657Z,74.03
2018-12-10T16:31:39.196Z,75.08
2018-12-10T16:34:06.624Z,75.89
2018-12-10T16:36:34.100Z,76.49
2018-12-10T16:39:01.564Z,76.65
2018-12-10T16:41:30.204Z,76.11
2018-12-10T16:43:57.896Z,75.53
2018-12-10T16:46:25.309Z,75.16
2018-12-10T16:48:52.933Z,75.19
2018-12-10T16:51:20.532Z,74.81
2018-12-10T16:53:48.400Z,74.39
2018-12-10T16:56:16.055Z,75.78
2018-12-10T16:58:43.669Z,74.64
2018-12-10T17:01:11.345Z,73.49
2018-12-10T17:03:38.954Z,74.37
2018-12-10T17:06:06.749Z,74.81
2018-12-10T17:08:34.344Z,74.18
2018-12-10T17:11:02.271Z,74.09
2018-12-10T17:13:30.311Z,75.00
2018-12-10T17:15:57.702Z,72.97
2018-12-10T17:18:25.599Z,72.89
2018-12-10T17:20:53.069Z,72.94
2018-12-10T17:23:20.739Z,72.37
2018-12-10T17:25:48.321Z,72.42
2018-12-10T17:28:16.121Z,73.05
2018-12-10T17:30:43.987Z,72.59
2018-12-10T17:33:11.697Z,72.81
2018-12-10T17:35:39.163Z,72.67
2018-12-10T17:38:06.814Z,73.95
2018-12-10T17:40:34.575Z,73.05
2018-12-10T17:43:02.247Z,74.10
2018-12-10T17:45:29.621Z,74.49
2018-12-10T17:47:57.543Z,74.22
2018-12-10T17:50:25.177Z,73.92
2018-12-10T17:52:52.816Z,74.07
2018-12-10T17:55:20.472Z,73.28
2018-12-10T17:57:48.289Z,72.56
2018-12-10T18:00:16.039Z,72.75
2018-12-10T18:02:43.599Z,72.71
2018-12-10T18:05:11.127Z,73.20
2018-12-10T18:07:38.545Z,73.62
2018-12-10T18:10:06.831Z,74.46
2018-12-10T18:12:34.463Z,74.67
2018-12-10T18:15:02.269Z,75.00
2018-12-10T18:17:32.989Z,75.15
2018-12-10T18:20:00.548Z,75.01
2018-12-10T18:22:28.067Z,74.68
2018-12-10T18:24:55.820Z,74.22
2018-12-10T18:27:23.415Z,73.95
2018-12-10T18:29:51.178Z,73.35
2018-12-10T18:32:18.876Z,72.70
2018-12-10T18:34:46.532Z,72.40
2018-12-10T18:37:14.090Z,72.61
2018-12-10T18:39:42.101Z,72.29
2018-12-10T18:42:09.779Z,71.66
2018-12-10T18:44:37.156Z,71.57
2018-12-10T18:47:04.688Z,71.80
2018-12-10T18:49:32.134Z,71.69
2018-12-10T18:51:59.834Z,71.81
2018-12-10T18:54:27.507Z,71.96
2018-12-10T18:56:55.038Z,71.98
2018-12-10T18:59:22.682Z,71.67
2018-12-10T19:01:50.531Z,71.91
2018-12-10T19:04:18.386Z,69.01
2018-12-10T19:06:46.041Z,69.24
2018-12-10T19:09:14.286Z,69.53
2018-12-10T19:11:42.052Z,71.06
2018-12-10T19:14:09.728Z,72.99
2018-12-10T19:16:37.982Z,73.52
2018-12-10T19:19:05.730Z,71.86
2018-12-10T19:21:33.549Z,71.75
2018-12-10T19:24:01.222Z,73.56
2018-12-10T19:26:28.868Z,74.60
2018-12-10T19:28:56.474Z,75.09
2018-12-10T19:31:24.103Z,75.52
2018-12-10T19:33:52.177Z,75.73
2018-12-10T19:36:19.565Z,75.64
2018-12-10T19:38:47.358Z,74.66
2018-12-10T19:41:14.998Z,73.82
2018-12-10T19:43:42.631Z,73.62
2018-12-10T19:46:10.417Z,73.84
2018-12-10T19:48:38.041Z,72.51
2018-12-10T19:51:05.776Z,72.05
2018-12-10T19:53:33.468Z,70.67
2018-12-10T19:56:01.057Z,71.13
2018-12-10T19:58:28.663Z,71.64
2018-12-10T20:00:56.326Z,69.81
2018-12-10T20:03:24.018Z,70.08
2018-12-10T20:05:57.712Z,71.16
2018-12-10T20:08:25.381Z,72.63
2018-12-10T20:10:53.360Z,73.25
2018-12-10T20:13:20.927Z,73.61
2018-12-10T20:15:48.671Z,72.89
2018-12-10T20:18:16.248Z,72.28
2018-12-10T20:20:43.745Z,72.71
2018-12-10T20:23:11.119Z,73.26
2018-12-10T20:25:38.729Z,73.30
2018-12-10T20:28:06.533Z,73.52
2018-12-10T20:30:34.239Z,73.58
2018-12-10T20:33:01.981Z,72.72
2018-12-10T20:35:29.490Z,72.61
2018-12-10T20:37:57.196Z,72.55
2018-12-10T20:40:24.812Z,72.71
2018-12-10T20:42:52.556Z,73.10
2018-12-10T20:45:20.272Z,73.24
2018-12-10T20:47:48.219Z,72.76
2018-12-10T20:50:16.130Z,72.63
2018-12-10T20:52:43.843Z,72.65
2018-12-10T20:55:12.972Z,72.57
2018-12-10T20:57:41.623Z,72.77
2018-12-10T21:00:09.765Z,72.41
2018-12-10T21:02:37.454Z,72.40
2018-12-10T21:05:05.100Z,72.93
2018-12-10T21:07:32.803Z,72.90
2018-12-10T21:10:00.493Z,72.34
2018-12-10T21:12:29.728Z,72.38
2018-12-10T21:15:00.453Z,73.32
2018-12-10T21:17:26.905Z,74.06
2018-12-10T21:19:54.575Z,74.41
2018-12-10T21:22:26.215Z,73.77
2018-12-10T21:24:57.180Z,72.78
2018-12-10T21:27:24.804Z,72.17
2018-12-10T21:29:53.624Z,71.86
2018-12-10T21:32:21.512Z,71.29
2018-12-10T21:34:48.985Z,71.36
2018-12-10T21:37:16.740Z,71.88
2018-12-10T21:39:44.354Z,71.07
2018-12-10T21:42:13.043Z,70.96
2018-12-10T21:44:40.698Z,71.24
2018-12-10T21:47:08.474Z,70.75
2018-12-10T21:49:36.072Z,71.13
2018-12-10T21:52:03.531Z,70.69
2018-12-10T21:54:31.157Z,70.46
2018-12-10T21:56:58.847Z,69.75
2018-12-10T21:59:26.589Z,69.46
2018-12-10T22:01:54.484Z,68.89
2018-12-10T22:04:22.084Z,69.40
2018-12-10T22:06:49.959Z,69.52
2018-12-10T22:09:17.712Z,69.81
2018-12-10T22:11:45.447Z,69.79
2018-12-10T22:14:13.153Z,70.25
2018-12-10T22:16:41.213Z,70.82
2018-12-10T22:19:09.287Z,70.52
2018-12-10T22:21:36.919Z,70.65
2018-12-10T22:24:04.635Z,71.21
2018-12-10T22:26:32.458Z,70.92
2018-12-10T22:29:00.076Z,71.71
2018-12-10T22:31:27.888Z,71.41
2018-12-10T22:33:55.641Z,71.85
2018-12-10T22:36:23.300Z,71.60
2018-12-10T22:38:50.837Z,71.10
2018-12-10T22:41:18.437Z,71.00
2018-12-10T22:43:46.005Z,71.33
2018-12-10T22:46:13.625Z,71.46
2018-12-10T22:48:41.413Z,72.01
2018-12-10T22:51:09.035Z,71.59
2018-12-10T22:53:36.623Z,72.08
2018-12-10T22:56:04.277Z,71.53
2018-12-10T22:58:31.976Z,71.31
2018-12-10T23:00:59.847Z,71.10
2018-12-10T23:03:27.321Z,71.03
2018-12-10T23:05:54.708Z,71.49
2018-12-10T23:08:22.327Z,71.24
2018-12-10T23:10:50.020Z,70.67
2018-12-10T23:13:17.605Z,70.47
2018-12-10T23:15:44.987Z,70.77
2018-12-10T23:18:12.569Z,70.65
2018-12-10T23:20:39.921Z,70.53
2018-12-10T23:23:07.634Z,70.51
2018-12-10T23:25:35.259Z,70.55
2018-12-10T23:28:03.104Z,70.80
2018-12-10T23:30:30.854Z,69.87
2018-12-10T23:32:59.330Z,70.68
2018-12-10T23:35:27.104Z,70.39
2018-12-10T23:37:54.704Z,69.69
2018-12-10T23:40:22.516Z,70.09
2018-12-10T23:42:55.762Z,68.78
2018-12-10T23:45:23.636Z,69.46
2018-12-10T23:47:51.223Z,69.53
2018-12-10T23:50:18.845Z,69.74
2018-12-10T23:52:46.436Z,69.05
2018-12-10T23:55:13.931Z,70.24
2018-12-10T23:57:41.477Z,71.05
